Главная страница
METAR-TAF:

METAR-TAF

Аэропорты :

Карлстад, Швеция

широта: 59-26-41N, долгота: 013-20-15E, высота над уровнем моря: 107 м

Текущие метеонаблюдения

Эта сводка был подготовлена 23 минут назад, в 12:50 UTC
Ветер 8 Узел от восточный
Температура 0°C
Влажность 100%
Давление 1019 hPa
Видимость 10 км и более
Сплошная облачность на высоте 2100 фута

METAR: ESOK 191250Z 10008KT 9999 OVC021 00/M00 Q1019

Время: 14:13 (13:13 UTC)

Прогноз

Эта сводка был подготовлена 1 час и 43 минут назад, в 11:30 UTC
Прогноз действительный с 19-го 12 UTC до 19-го 21 UTC
Ветер 8 Узел от восточный
Видимость: 8000 м
небольшая облачность на высоте 900 фута
Сплошная облачность на высоте 2500 фута
временами
С 19-го 12 UTC до 19-го 16 UTC
Видимость: 2000 м
Рассеянная облачность на высоте 900 фута
небольшой снег, дождь

TAF: ESOK 191130Z 1912/1921 10008KT 8000 FEW009 OVC025 TEMPO 1912/1916 2000 -SNRA BKN009

Метеонаблюдения и прогнозы для более 4000 аэропортов (сводки METAR и TAF).

Имеющиеся станции представлены на карте желтыми и красными точками.

Чтобы увидеть название станции, наведите на нее мышь.

Затем щелкните, чтобы увидеть метеонаблюдения и метеопрогнозы.

Управление картой: чтобы увеличить масштаб, щелкните зеленые кнопки с черным крестиком; чтобы уменьшить масштаб, щелкните зеленую кнопку с тире; для просмотра соседних карт щелкайте зеленые стрелки.


METAR-TAF: